Stevenson, MD (21153)

6:18 PM EDT on August 21, 2014 (GMT -0400)
KMDTIMON1 | Change Station
CLOSE
Current Station
Personal Weather Station
Location: Timonium, MD
Elevation: 360 ft
Nearby Weather Stations
Active Advisory: Special Weather Statement

Elev 360 ft 39.43 °N, 76.63 °W | Updated 8 minutes ago

Overcast
Overcast
80.1 °F
Feels Like 85 °F
N
0.0
Wind Variable Wind from South
Gusts 3.0 mph

Today
High -- | Low -- °F
--% Chance of Precip.
Yesterday
High -- | Low -- °F
Precip. -- in
6:25 AM 7:54 PM
Waning Crescent, 12% visible
Pressure 29.97 in
Visibility 10.0 miles
Clouds Few 4700 ft
Mostly Cloudy 12000 ft
Mostly Cloudy 16000 ft
Overcast 25000 ft
Heat Index 85 °F
Dew Point 74 °F
Humidity 81%
Rainfall 0.00 in
Snow Depth Not available.
UV 1 out of 12
Pollen 9.10 out of 12
Air Quality Not available.
Flu Activity Not available.
METAR KBWI 212154Z 16004KT 10SM FEW047 BKN120 BKN160 OVC250 28/23 A2998 RMK AO2 SLP149 CB DSNT NE MOV SE CB DSNT SW MOV SE TCU DSNT N T02780228

More Conditions Fewer Conditions

Pressure 29.97 in
Visibility 10.0 miles
Clouds Few 4700 ft
Mostly Cloudy 12000 ft
Mostly Cloudy 16000 ft
Overcast 25000 ft
Heat Index 85 °F
Dew Point 74 °F
Humidity 81%
Rainfall 0.00 in
Snow Depth Not available.
UV 1 out of 12
Pollen 9.10 out of 12
Air Quality Not available.
Flu Activity Not available.
METAR KBWI 212154Z 16004KT 10SM FEW047 BKN120 BKN160 OVC250 28/23 A2998 RMK AO2 SLP149 CB DSNT NE MOV SE CB DSNT SW MOV SE TCU DSNT N T02780228

More Conditions Fewer Conditions

10-Day Weather Forecast

Almanac

Astronomy

Aug. 21, 2014 Rise Set
Actual Time 6:25 AM EDT 7:54 PM EDT
Civil Twilight 5:56 AM EDT 8:22 PM EDT
Nautical Twilight 5:22 AM EDT 8:56 PM EDT
Astronomical Twilight 4:46 AM EDT 9:32 PM EDT
Moon 2:54 AM EDT 5:21 PM EDT
Length of Visible Light 14h 25m
Length of Day
13h 29m
Tomorrow will be 2m 22s shorter.
Waning Crescent, 12% of the Moon is Illuminated
Today
Waning Crescent
Aug 25
New
Sep 2
First Quarter
Sep 8
Full
Sep 15
Last Quarter

Today's Extremes

State Highs State Lows

Community

WunderPhotos

Upload Photos

1,746,032 photos uploaded!

WunderBlogs® & News

Nearby

Snow Depth

Station Depth Elevation
No new snow has been reported.

Earthquake Activity

City Distance Mag. Time & Date
No recent earthquake activity has been reported nearby.
Minimum magnitude displayed is 2.5.

Coastal Water Temperatures

Place Temperature
Baltimore, MD 80.1 °F
Tolchester Beach, MD 80.1 °F
Washington, DC 78.1 °F

Nearby Weather Stations